sensor_id;sensor_type;location;lat;lon;timestamp;P1;durP1;ratioP1;P2;durP2;ratioP2
52902;SDS011;38765;53.176;7.090;2022-09-09T00:00:29;0.60;;;0.60;;
52902;SDS011;38765;53.176;7.090;2022-09-09T00:03:02;0.70;;;0.60;;
52902;SDS011;38765;53.176;7.090;2022-09-09T00:11:42;0.60;;;0.52;;
52902;SDS011;38765;53.176;7.090;2022-09-09T00:14:23;0.60;;;0.60;;
52902;SDS011;38765;53.176;7.090;2022-09-09T00:17:01;0.68;;;0.60;;
52902;SDS011;38765;53.176;7.090;2022-09-09T00:22:17;0.68;;;0.57;;
52902;SDS011;38765;53.176;7.090;2022-09-09T00:24:49;0.60;;;0.60;;
52902;SDS011;38765;53.176;7.090;2022-09-09T00:27:39;0.60;;;0.60;;
52902;SDS011;38765;53.176;7.090;2022-09-09T00:32:55;0.70;;;0.60;;
52902;SDS011;38765;53.176;7.090;2022-09-09T00:35:27;0.60;;;0.60;;
52902;SDS011;38765;53.176;7.090;2022-09-09T00:43:36;0.60;;;0.60;;
52902;SDS011;38765;53.176;7.090;2022-09-09T00:54:20;0.60;;;0.60;;
52902;SDS011;38765;53.176;7.090;2022-09-09T00:57:03;0.65;;;0.60;;
52902;SDS011;38765;53.176;7.090;2022-09-09T01:02:18;0.60;;;0.60;;
52902;SDS011;38765;53.176;7.090;2022-09-09T01:04:54;0.63;;;0.60;;
52902;SDS011;38765;53.176;7.090;2022-09-09T01:07:23;0.60;;;0.57;;
52902;SDS011;38765;53.176;7.090;2022-09-09T01:09:58;0.60;;;0.60;;
52902;SDS011;38765;53.176;7.090;2022-09-09T01:15:19;0.60;;;0.60;;
52902;SDS011;38765;53.176;7.090;2022-09-09T01:23:24;0.70;;;0.60;;
52902;SDS011;38765;53.176;7.090;2022-09-09T01:26:28;0.70;;;0.60;;
52902;SDS011;38765;53.176;7.090;2022-09-09T01:28:59;0.60;;;0.60;;
52902;SDS011;38765;53.176;7.090;2022-09-09T01:31:42;0.60;;;0.50;;
52902;SDS011;38765;53.176;7.090;2022-09-09T01:34:18;0.70;;;0.60;;
52902;SDS011;38765;53.176;7.090;2022-09-09T01:36:58;0.70;;;0.60;;
52902;SDS011;38765;53.176;7.090;2022-09-09T01:39:35;0.70;;;0.60;;
52902;SDS011;38765;53.176;7.090;2022-09-09T01:42:02;0.70;;;0.60;;
52902;SDS011;38765;53.176;7.090;2022-09-09T01:44:30;0.60;;;0.52;;
52902;SDS011;38765;53.176;7.090;2022-09-09T01:46:56;0.70;;;0.60;;
52902;SDS011;38765;53.176;7.090;2022-09-09T01:49:22;0.60;;;0.60;;
52902;SDS011;38765;53.176;7.090;2022-09-09T01:51:52;0.60;;;0.60;;
52902;SDS011;38765;53.176;7.090;2022-09-09T01:54:20;0.50;;;0.50;;
52902;SDS011;38765;53.176;7.090;2022-09-09T01:57:04;0.57;;;0.57;;
52902;SDS011;38765;53.176;7.090;2022-09-09T02:05:07;0.60;;;0.50;;
52902;SDS011;38765;53.176;7.090;2022-09-09T02:08:02;0.60;;;0.60;;
52902;SDS011;38765;53.176;7.090;2022-09-09T02:13:07;0.60;;;0.57;;
52902;SDS011;38765;53.176;7.090;2022-09-09T02:18:40;0.70;;;0.60;;
52902;SDS011;38765;53.176;7.090;2022-09-09T02:21:14;0.70;;;0.60;;
52902;SDS011;38765;53.176;7.090;2022-09-09T02:23:42;0.60;;;0.60;;
52902;SDS011;38765;53.176;7.090;2022-09-09T02:26:12;0.60;;;0.60;;
52902;SDS011;38765;53.176;7.090;2022-09-09T02:28:44;0.60;;;0.60;;
52902;SDS011;38765;53.176;7.090;2022-09-09T02:31:12;0.70;;;0.60;;
52902;SDS011;38765;53.176;7.090;2022-09-09T02:33:43;0.68;;;0.60;;
52902;SDS011;38765;53.176;7.090;2022-09-09T02:36:13;0.60;;;0.60;;
52902;SDS011;38765;53.176;7.090;2022-09-09T02:38:42;0.70;;;0.60;;
52902;SDS011;38765;53.176;7.090;2022-09-09T02:41:15;0.60;;;0.50;;
52902;SDS011;38765;53.176;7.090;2022-09-09T02:43:43;0.60;;;0.60;;
52902;SDS011;38765;53.176;7.090;2022-09-09T02:49:10;0.63;;;0.60;;
52902;SDS011;38765;53.176;7.090;2022-09-09T02:54:29;0.70;;;0.60;;
52902;SDS011;38765;53.176;7.090;2022-09-09T02:57:04;0.70;;;0.60;;
52902;SDS011;38765;53.176;7.090;2022-09-09T02:59:35;0.70;;;0.60;;
52902;SDS011;38765;53.176;7.090;2022-09-09T03:02:01;0.60;;;0.50;;
52902;SDS011;38765;53.176;7.090;2022-09-09T03:04:27;0.70;;;0.60;;
52902;SDS011;38765;53.176;7.090;2022-09-09T03:06:53;0.70;;;0.60;;
52902;SDS011;38765;53.176;7.090;2022-09-09T03:09:19;0.70;;;0.60;;
52902;SDS011;38765;53.176;7.090;2022-09-09T03:11:45;0.60;;;0.60;;
52902;SDS011;38765;53.176;7.090;2022-09-09T03:14:11;0.70;;;0.60;;
52902;SDS011;38765;53.176;7.090;2022-09-09T03:16:36;0.70;;;0.60;;
52902;SDS011;38765;53.176;7.090;2022-09-09T03:19:02;0.68;;;0.60;;
52902;SDS011;38765;53.176;7.090;2022-09-09T03:21:28;0.70;;;0.60;;
52902;SDS011;38765;53.176;7.090;2022-09-09T03:23:54;0.60;;;0.52;;
52902;SDS011;38765;53.176;7.090;2022-09-09T03:26:20;0.60;;;0.60;;
52902;SDS011;38765;53.176;7.090;2022-09-09T03:28:46;0.65;;;0.60;;
52902;SDS011;38765;53.176;7.090;2022-09-09T03:31:12;0.70;;;0.60;;
52902;SDS011;38765;53.176;7.090;2022-09-09T03:33:37;0.70;;;0.60;;
52902;SDS011;38765;53.176;7.090;2022-09-09T03:36:05;0.70;;;0.60;;
52902;SDS011;38765;53.176;7.090;2022-09-09T03:38:32;0.60;;;0.60;;
52902;SDS011;38765;53.176;7.090;2022-09-09T03:40:58;0.70;;;0.60;;
52902;SDS011;38765;53.176;7.090;2022-09-09T03:43:27;0.60;;;0.60;;
52902;SDS011;38765;53.176;7.090;2022-09-09T03:45:54;0.70;;;0.60;;
52902;SDS011;38765;53.176;7.090;2022-09-09T03:48:23;0.60;;;0.60;;
52902;SDS011;38765;53.176;7.090;2022-09-09T03:50:51;0.60;;;0.60;;
52902;SDS011;38765;53.176;7.090;2022-09-09T03:53:18;0.60;;;0.60;;
52902;SDS011;38765;53.176;7.090;2022-09-09T03:55:46;0.60;;;0.60;;
52902;SDS011;38765;53.176;7.090;2022-09-09T03:58:13;0.70;;;0.60;;
52902;SDS011;38765;53.176;7.090;2022-09-09T04:00:39;0.68;;;0.60;;
52902;SDS011;38765;53.176;7.090;2022-09-09T04:03:08;0.68;;;0.60;;
52902;SDS011;38765;53.176;7.090;2022-09-09T04:05:34;0.70;;;0.60;;
52902;SDS011;38765;53.176;7.090;2022-09-09T04:08:00;0.70;;;0.60;;
52902;SDS011;38765;53.176;7.090;2022-09-09T04:10:26;0.70;;;0.60;;
52902;SDS011;38765;53.176;7.090;2022-09-09T04:12:51;0.70;;;0.60;;
52902;SDS011;38765;53.176;7.090;2022-09-09T04:15:17;0.70;;;0.60;;
52902;SDS011;38765;53.176;7.090;2022-09-09T04:17:46;0.70;;;0.60;;
52902;SDS011;38765;53.176;7.090;2022-09-09T04:20:12;0.70;;;0.60;;
52902;SDS011;38765;53.176;7.090;2022-09-09T04:22:37;0.70;;;0.60;;
52902;SDS011;38765;53.176;7.090;2022-09-09T04:25:04;0.68;;;0.60;;
52902;SDS011;38765;53.176;7.090;2022-09-09T04:27:31;0.70;;;0.60;;
52902;SDS011;38765;53.176;7.090;2022-09-09T04:29:57;0.70;;;0.60;;
52902;SDS011;38765;53.176;7.090;2022-09-09T04:32:23;0.70;;;0.70;;
52902;SDS011;38765;53.176;7.090;2022-09-09T04:34:51;0.70;;;0.60;;
52902;SDS011;38765;53.176;7.090;2022-09-09T04:37:17;0.70;;;0.60;;
52902;SDS011;38765;53.176;7.090;2022-09-09T04:39:43;0.70;;;0.70;;
52902;SDS011;38765;53.176;7.090;2022-09-09T04:42:08;0.70;;;0.63;;
52902;SDS011;38765;53.176;7.090;2022-09-09T04:44:34;0.70;;;0.65;;
52902;SDS011;38765;53.176;7.090;2022-09-09T04:47:00;0.70;;;0.60;;
52902;SDS011;38765;53.176;7.090;2022-09-09T04:49:26;0.70;;;0.70;;
52902;SDS011;38765;53.176;7.090;2022-09-09T04:51:51;0.70;;;0.70;;
52902;SDS011;38765;53.176;7.090;2022-09-09T04:54:17;0.70;;;0.70;;
52902;SDS011;38765;53.176;7.090;2022-09-09T04:56:44;0.70;;;0.60;;
52902;SDS011;38765;53.176;7.090;2022-09-09T04:59:09;0.70;;;0.60;;
52902;SDS011;38765;53.176;7.090;2022-09-09T05:01:35;0.70;;;0.60;;
52902;SDS011;38765;53.176;7.090;2022-09-09T05:04:01;0.70;;;0.70;;
52902;SDS011;38765;53.176;7.090;2022-09-09T05:06:28;0.70;;;0.70;;
52902;SDS011;38765;53.176;7.090;2022-09-09T05:08:56;0.70;;;0.60;;
52902;SDS011;38765;53.176;7.090;2022-09-09T05:11:27;0.70;;;0.60;;
52902;SDS011;38765;53.176;7.090;2022-09-09T05:13:55;0.70;;;0.70;;
52902;SDS011;38765;53.176;7.090;2022-09-09T05:16:23;0.70;;;0.70;;
52902;SDS011;38765;53.176;7.090;2022-09-09T05:18:49;0.70;;;0.60;;
52902;SDS011;38765;53.176;7.090;2022-09-09T05:21:19;0.70;;;0.70;;
52902;SDS011;38765;53.176;7.090;2022-09-09T05:23:46;0.70;;;0.60;;
52902;SDS011;38765;53.176;7.090;2022-09-09T05:26:14;0.70;;;0.68;;
52902;SDS011;38765;53.176;7.090;2022-09-09T05:28:41;0.70;;;0.70;;
52902;SDS011;38765;53.176;7.090;2022-09-09T05:31:07;0.70;;;0.63;;
52902;SDS011;38765;53.176;7.090;2022-09-09T05:33:37;0.70;;;0.65;;
52902;SDS011;38765;53.176;7.090;2022-09-09T05:38:33;0.70;;;0.70;;
52902;SDS011;38765;53.176;7.090;2022-09-09T05:41:00;0.70;;;0.70;;
52902;SDS011;38765;53.176;7.090;2022-09-09T05:43:27;0.70;;;0.70;;
52902;SDS011;38765;53.176;7.090;2022-09-09T05:48:31;0.70;;;0.70;;
52902;SDS011;38765;53.176;7.090;2022-09-09T05:50:58;0.70;;;0.70;;
52902;SDS011;38765;53.176;7.090;2022-09-09T05:53:24;0.70;;;0.70;;
52902;SDS011;38765;53.176;7.090;2022-09-09T05:55:57;0.70;;;0.68;;
52902;SDS011;38765;53.176;7.090;2022-09-09T05:58:35;0.70;;;0.70;;
52902;SDS011;38765;53.176;7.090;2022-09-09T06:01:01;0.70;;;0.70;;
52902;SDS011;38765;53.176;7.090;2022-09-09T06:03:35;0.70;;;0.60;;
52902;SDS011;38765;53.176;7.090;2022-09-09T06:06:11;0.70;;;0.65;;
52902;SDS011;38765;53.176;7.090;2022-09-09T06:08:42;0.70;;;0.70;;
52902;SDS011;38765;53.176;7.090;2022-09-09T06:11:10;0.70;;;0.70;;
52902;SDS011;38765;53.176;7.090;2022-09-09T06:13:37;0.70;;;0.70;;
52902;SDS011;38765;53.176;7.090;2022-09-09T06:16:04;0.70;;;0.70;;
52902;SDS011;38765;53.176;7.090;2022-09-09T06:18:40;0.70;;;0.70;;
52902;SDS011;38765;53.176;7.090;2022-09-09T06:21:08;0.70;;;0.70;;
52902;SDS011;38765;53.176;7.090;2022-09-09T06:23:45;0.80;;;0.80;;
52902;SDS011;38765;53.176;7.090;2022-09-09T06:28:45;0.70;;;0.70;;
52902;SDS011;38765;53.176;7.090;2022-09-09T06:31:13;0.70;;;0.70;;
52902;SDS011;38765;53.176;7.090;2022-09-09T06:33:41;0.70;;;0.70;;
52902;SDS011;38765;53.176;7.090;2022-09-09T06:36:15;0.70;;;0.70;;
52902;SDS011;38765;53.176;7.090;2022-09-09T06:38:43;0.70;;;0.70;;
52902;SDS011;38765;53.176;7.090;2022-09-09T06:41:10;0.70;;;0.70;;
52902;SDS011;38765;53.176;7.090;2022-09-09T06:43:57;0.70;;;0.70;;
52902;SDS011;38765;53.176;7.090;2022-09-09T06:46:27;0.80;;;0.80;;
52902;SDS011;38765;53.176;7.090;2022-09-09T06:48:56;0.80;;;0.80;;
52902;SDS011;38765;53.176;7.090;2022-09-09T06:51:25;0.70;;;0.70;;
52902;SDS011;38765;53.176;7.090;2022-09-09T06:53:56;0.80;;;0.80;;
52902;SDS011;38765;53.176;7.090;2022-09-09T06:56:33;0.80;;;0.80;;
52902;SDS011;38765;53.176;7.090;2022-09-09T06:59:01;0.80;;;0.80;;
52902;SDS011;38765;53.176;7.090;2022-09-09T07:01:32;0.70;;;0.70;;
52902;SDS011;38765;53.176;7.090;2022-09-09T07:04:03;0.77;;;0.77;;
52902;SDS011;38765;53.176;7.090;2022-09-09T07:06:33;0.80;;;0.80;;
52902;SDS011;38765;53.176;7.090;2022-09-09T07:09:05;0.80;;;0.80;;
52902;SDS011;38765;53.176;7.090;2022-09-09T07:11:39;0.80;;;0.80;;
52902;SDS011;38765;53.176;7.090;2022-09-09T07:14:09;0.80;;;0.80;;
52902;SDS011;38765;53.176;7.090;2022-09-09T07:16:39;0.80;;;0.80;;
52902;SDS011;38765;53.176;7.090;2022-09-09T07:19:07;0.80;;;0.80;;
52902;SDS011;38765;53.176;7.090;2022-09-09T07:21:35;0.80;;;0.80;;
52902;SDS011;38765;53.176;7.090;2022-09-09T07:24:05;0.80;;;0.80;;
52902;SDS011;38765;53.176;7.090;2022-09-09T07:26:35;0.80;;;0.80;;
52902;SDS011;38765;53.176;7.090;2022-09-09T07:29:36;0.80;;;0.80;;
52902;SDS011;38765;53.176;7.090;2022-09-09T07:35:15;0.80;;;0.80;;
52902;SDS011;38765;53.176;7.090;2022-09-09T07:38:00;0.90;;;0.90;;
52902;SDS011;38765;53.176;7.090;2022-09-09T07:40:33;0.80;;;0.80;;
52902;SDS011;38765;53.176;7.090;2022-09-09T07:43:01;0.90;;;0.90;;
52902;SDS011;38765;53.176;7.090;2022-09-09T07:45:27;0.80;;;0.80;;
52902;SDS011;38765;53.176;7.090;2022-09-09T07:48:00;0.82;;;0.82;;
52902;SDS011;38765;53.176;7.090;2022-09-09T07:50:27;0.80;;;0.80;;
52902;SDS011;38765;53.176;7.090;2022-09-09T07:53:01;0.90;;;0.90;;
52902;SDS011;38765;53.176;7.090;2022-09-09T07:55:30;0.80;;;0.80;;
52902;SDS011;38765;53.176;7.090;2022-09-09T07:58:01;0.95;;;0.95;;
52902;SDS011;38765;53.176;7.090;2022-09-09T08:00:35;0.90;;;0.90;;
52902;SDS011;38765;53.176;7.090;2022-09-09T08:03:08;0.90;;;0.90;;
52902;SDS011;38765;53.176;7.090;2022-09-09T08:05:41;0.90;;;0.90;;
52902;SDS011;38765;53.176;7.090;2022-09-09T08:08:25;0.90;;;0.90;;
52902;SDS011;38765;53.176;7.090;2022-09-09T08:10:56;0.95;;;0.95;;
52902;SDS011;38765;53.176;7.090;2022-09-09T08:13:35;1.00;;;1.00;;
52902;SDS011;38765;53.176;7.090;2022-09-09T08:16:08;1.00;;;1.00;;
52902;SDS011;38765;53.176;7.090;2022-09-09T08:18:48;1.00;;;1.00;;
52902;SDS011;38765;53.176;7.090;2022-09-09T08:21:28;1.08;;;1.08;;
52902;SDS011;38765;53.176;7.090;2022-09-09T08:23:57;1.00;;;1.00;;
52902;SDS011;38765;53.176;7.090;2022-09-09T08:26:54;1.00;;;1.00;;
52902;SDS011;38765;53.176;7.090;2022-09-09T08:29:28;1.00;;;1.00;;
52902;SDS011;38765;53.176;7.090;2022-09-09T08:32:01;1.00;;;1.00;;
52902;SDS011;38765;53.176;7.090;2022-09-09T08:34:29;1.20;;;1.10;;
52902;SDS011;38765;53.176;7.090;2022-09-09T08:36:58;1.15;;;1.10;;
52902;SDS011;38765;53.176;7.090;2022-09-09T08:39:26;1.05;;;1.05;;
52902;SDS011;38765;53.176;7.090;2022-09-09T08:45:03;1.00;;;1.00;;
52902;SDS011;38765;53.176;7.090;2022-09-09T08:48:05;1.30;;;1.20;;
52902;SDS011;38765;53.176;7.090;2022-09-09T08:51:01;1.30;;;1.20;;
52902;SDS011;38765;53.176;7.090;2022-09-09T08:53:35;1.20;;;1.10;;
52902;SDS011;38765;53.176;7.090;2022-09-09T08:56:31;1.30;;;1.20;;
52902;SDS011;38765;53.176;7.090;2022-09-09T08:59:30;1.20;;;1.10;;
52902;SDS011;38765;53.176;7.090;2022-09-09T09:02:14;1.20;;;1.10;;
52902;SDS011;38765;53.176;7.090;2022-09-09T09:08:36;1.27;;;1.17;;
52902;SDS011;38765;53.176;7.090;2022-09-09T09:11:03;1.30;;;1.20;;
52902;SDS011;38765;53.176;7.090;2022-09-09T09:13:43;1.30;;;1.20;;
52902;SDS011;38765;53.176;7.090;2022-09-09T09:19:22;1.30;;;1.20;;
52902;SDS011;38765;53.176;7.090;2022-09-09T09:24:36;1.30;;;1.20;;
52902;SDS011;38765;53.176;7.090;2022-09-09T09:30:29;1.25;;;1.15;;
52902;SDS011;38765;53.176;7.090;2022-09-09T09:36:09;1.40;;;1.30;;
52902;SDS011;38765;53.176;7.090;2022-09-09T09:38:56;1.38;;;1.27;;
52902;SDS011;38765;53.176;7.090;2022-09-09T09:44:03;1.40;;;1.30;;
52902;SDS011;38765;53.176;7.090;2022-09-09T09:47:12;1.50;;;1.40;;
52902;SDS011;38765;53.176;7.090;2022-09-09T09:49:54;1.40;;;1.30;;
52902;SDS011;38765;53.176;7.090;2022-09-09T09:52:30;1.50;;;1.40;;
52902;SDS011;38765;53.176;7.090;2022-09-09T09:55:02;1.40;;;1.30;;
52902;SDS011;38765;53.176;7.090;2022-09-09T09:57:32;1.50;;;1.40;;
52902;SDS011;38765;53.176;7.090;2022-09-09T10:02:39;1.50;;;1.40;;
52902;SDS011;38765;53.176;7.090;2022-09-09T10:05:22;1.50;;;1.40;;
52902;SDS011;38765;53.176;7.090;2022-09-09T10:08:18;1.50;;;1.40;;
52902;SDS011;38765;53.176;7.090;2022-09-09T10:11:05;1.50;;;1.40;;
52902;SDS011;38765;53.176;7.090;2022-09-09T10:19:04;1.50;;;1.40;;
52902;SDS011;38765;53.176;7.090;2022-09-09T10:22:01;1.48;;;1.38;;
52902;SDS011;38765;53.176;7.090;2022-09-09T10:24:49;1.40;;;1.30;;
52902;SDS011;38765;53.176;7.090;2022-09-09T10:28:00;1.50;;;1.40;;
52902;SDS011;38765;53.176;7.090;2022-09-09T10:38:59;1.50;;;1.40;;
52902;SDS011;38765;53.176;7.090;2022-09-09T10:55:37;1.50;;;1.40;;
52902;SDS011;38765;53.176;7.090;2022-09-09T10:58:56;1.60;;;1.50;;
52902;SDS011;38765;53.176;7.090;2022-09-09T11:01:22;1.50;;;1.40;;
52902;SDS011;38765;53.176;7.090;2022-09-09T11:03:54;1.58;;;1.48;;
52902;SDS011;38765;53.176;7.090;2022-09-09T11:06:29;1.50;;;1.40;;
52902;SDS011;38765;53.176;7.090;2022-09-09T11:08:59;1.60;;;1.50;;
52902;SDS011;38765;53.176;7.090;2022-09-09T11:16:57;1.50;;;1.40;;
52902;SDS011;38765;53.176;7.090;2022-09-09T11:19:34;1.60;;;1.50;;
52902;SDS011;38765;53.176;7.090;2022-09-09T11:22:49;1.50;;;1.40;;
52902;SDS011;38765;53.176;7.090;2022-09-09T11:33:34;1.60;;;1.50;;
52902;SDS011;38765;53.176;7.090;2022-09-09T11:44:39;1.55;;;1.45;;
52902;SDS011;38765;53.176;7.090;2022-09-09T11:50:06;1.52;;;1.42;;
52902;SDS011;38765;53.176;7.090;2022-09-09T11:53:03;1.60;;;1.50;;
52902;SDS011;38765;53.176;7.090;2022-09-09T11:55:38;1.63;;;1.52;;
52902;SDS011;38765;53.176;7.090;2022-09-09T12:03:04;1.60;;;1.50;;
52902;SDS011;38765;53.176;7.090;2022-09-09T12:05:58;1.60;;;1.50;;
52902;SDS011;38765;53.176;7.090;2022-09-09T12:08:36;1.50;;;1.40;;
52902;SDS011;38765;53.176;7.090;2022-09-09T12:11:09;1.55;;;1.45;;
52902;SDS011;38765;53.176;7.090;2022-09-09T12:13:36;1.50;;;1.40;;
52902;SDS011;38765;53.176;7.090;2022-09-09T12:16:27;1.50;;;1.40;;
52902;SDS011;38765;53.176;7.090;2022-09-09T12:19:18;1.40;;;1.30;;
52902;SDS011;38765;53.176;7.090;2022-09-09T12:21:46;1.40;;;1.30;;
52902;SDS011;38765;53.176;7.090;2022-09-09T12:24:45;1.40;;;1.30;;
52902;SDS011;38765;53.176;7.090;2022-09-09T12:27:34;1.60;;;1.50;;
52902;SDS011;38765;53.176;7.090;2022-09-09T12:30:25;1.60;;;1.50;;
52902;SDS011;38765;53.176;7.090;2022-09-09T12:33:01;1.60;;;1.50;;
52902;SDS011;38765;53.176;7.090;2022-09-09T12:35:27;1.60;;;1.50;;
52902;SDS011;38765;53.176;7.090;2022-09-09T12:37:57;1.50;;;1.40;;
52902;SDS011;38765;53.176;7.090;2022-09-09T12:40:30;1.50;;;1.40;;
52902;SDS011;38765;53.176;7.090;2022-09-09T12:43:00;1.50;;;1.40;;
52902;SDS011;38765;53.176;7.090;2022-09-09T12:45:31;1.50;;;1.40;;
52902;SDS011;38765;53.176;7.090;2022-09-09T12:50:30;1.40;;;1.30;;
52902;SDS011;38765;53.176;7.090;2022-09-09T12:52:59;1.30;;;1.20;;
52902;SDS011;38765;53.176;7.090;2022-09-09T12:55:29;1.40;;;1.30;;
52902;SDS011;38765;53.176;7.090;2022-09-09T12:57:58;1.30;;;1.20;;
52902;SDS011;38765;53.176;7.090;2022-09-09T13:00:29;1.40;;;1.30;;
52902;SDS011;38765;53.176;7.090;2022-09-09T13:03:00;1.40;;;1.30;;
52902;SDS011;38765;53.176;7.090;2022-09-09T13:05:41;1.33;;;1.23;;
52902;SDS011;38765;53.176;7.090;2022-09-09T13:08:11;1.20;;;1.10;;
52902;SDS011;38765;53.176;7.090;2022-09-09T13:10:46;1.20;;;1.10;;
52902;SDS011;38765;53.176;7.090;2022-09-09T13:13:20;1.27;;;1.17;;
52902;SDS011;38765;53.176;7.090;2022-09-09T13:15:59;1.20;;;1.10;;
52902;SDS011;38765;53.176;7.090;2022-09-09T13:18:27;1.20;;;1.10;;
52902;SDS011;38765;53.176;7.090;2022-09-09T13:20:55;1.15;;;1.10;;
52902;SDS011;38765;53.176;7.090;2022-09-09T13:23:24;1.20;;;1.10;;
52902;SDS011;38765;53.176;7.090;2022-09-09T13:25:54;1.10;;;1.10;;
52902;SDS011;38765;53.176;7.090;2022-09-09T13:28:22;1.20;;;1.10;;
52902;SDS011;38765;53.176;7.090;2022-09-09T13:30:56;1.30;;;1.20;;
52902;SDS011;38765;53.176;7.090;2022-09-09T13:36:04;1.20;;;1.10;;
52902;SDS011;38765;53.176;7.090;2022-09-09T13:38:40;1.30;;;1.20;;
52902;SDS011;38765;53.176;7.090;2022-09-09T13:41:36;1.27;;;1.17;;
52902;SDS011;38765;53.176;7.090;2022-09-09T13:44:14;1.20;;;1.10;;
52902;SDS011;38765;53.176;7.090;2022-09-09T13:46:44;1.20;;;1.10;;
52902;SDS011;38765;53.176;7.090;2022-09-09T13:51:37;1.20;;;1.10;;
52902;SDS011;38765;53.176;7.090;2022-09-09T13:54:05;1.20;;;1.10;;
52902;SDS011;38765;53.176;7.090;2022-09-09T13:56:33;1.10;;;1.10;;
52902;SDS011;38765;53.176;7.090;2022-09-09T13:59:00;1.00;;;1.00;;
52902;SDS011;38765;53.176;7.090;2022-09-09T14:01:27;1.00;;;1.00;;
52902;SDS011;38765;53.176;7.090;2022-09-09T14:03:53;1.00;;;1.00;;
52902;SDS011;38765;53.176;7.090;2022-09-09T14:06:19;1.00;;;1.00;;
52902;SDS011;38765;53.176;7.090;2022-09-09T14:08:47;0.90;;;0.90;;
52902;SDS011;38765;53.176;7.090;2022-09-09T14:11:15;0.90;;;0.90;;
52902;SDS011;38765;53.176;7.090;2022-09-09T14:13:41;0.90;;;0.90;;
52902;SDS011;38765;53.176;7.090;2022-09-09T14:16:07;0.90;;;0.90;;
52902;SDS011;38765;53.176;7.090;2022-09-09T14:18:33;0.85;;;0.85;;
52902;SDS011;38765;53.176;7.090;2022-09-09T14:20:59;0.90;;;0.90;;
52902;SDS011;38765;53.176;7.090;2022-09-09T14:23:25;0.90;;;0.90;;
52902;SDS011;38765;53.176;7.090;2022-09-09T14:25:51;0.80;;;0.80;;
52902;SDS011;38765;53.176;7.090;2022-09-09T14:28:17;0.80;;;0.80;;
52902;SDS011;38765;53.176;7.090;2022-09-09T14:30:43;0.80;;;0.80;;
52902;SDS011;38765;53.176;7.090;2022-09-09T14:33:13;0.70;;;0.70;;
52902;SDS011;38765;53.176;7.090;2022-09-09T14:35:40;0.70;;;0.70;;
52902;SDS011;38765;53.176;7.090;2022-09-09T14:38:07;0.80;;;0.80;;
52902;SDS011;38765;53.176;7.090;2022-09-09T14:40:34;0.80;;;0.80;;
52902;SDS011;38765;53.176;7.090;2022-09-09T14:43:01;0.70;;;0.70;;
52902;SDS011;38765;53.176;7.090;2022-09-09T14:45:27;0.80;;;0.80;;
52902;SDS011;38765;53.176;7.090;2022-09-09T14:47:53;0.80;;;0.80;;
52902;SDS011;38765;53.176;7.090;2022-09-09T14:50:20;0.80;;;0.80;;
52902;SDS011;38765;53.176;7.090;2022-09-09T14:52:46;0.70;;;0.70;;
52902;SDS011;38765;53.176;7.090;2022-09-09T14:55:12;0.70;;;0.70;;
52902;SDS011;38765;53.176;7.090;2022-09-09T14:57:38;0.70;;;0.70;;
52902;SDS011;38765;53.176;7.090;2022-09-09T15:00:05;0.70;;;0.70;;
52902;SDS011;38765;53.176;7.090;2022-09-09T15:02:32;0.70;;;0.70;;
52902;SDS011;38765;53.176;7.090;2022-09-09T15:04:58;0.70;;;0.70;;
52902;SDS011;38765;53.176;7.090;2022-09-09T15:07:24;0.70;;;0.70;;
52902;SDS011;38765;53.176;7.090;2022-09-09T15:09:52;0.70;;;0.70;;
52902;SDS011;38765;53.176;7.090;2022-09-09T15:12:18;0.70;;;0.70;;
52902;SDS011;38765;53.176;7.090;2022-09-09T15:14:44;0.70;;;0.70;;
52902;SDS011;38765;53.176;7.090;2022-09-09T15:17:10;0.80;;;0.80;;
52902;SDS011;38765;53.176;7.090;2022-09-09T15:19:37;0.80;;;0.80;;
52902;SDS011;38765;53.176;7.090;2022-09-09T15:22:03;0.70;;;0.70;;
52902;SDS011;38765;53.176;7.090;2022-09-09T15:24:32;0.70;;;0.70;;
52902;SDS011;38765;53.176;7.090;2022-09-09T15:26:58;0.70;;;0.70;;
52902;SDS011;38765;53.176;7.090;2022-09-09T15:29:24;0.70;;;0.70;;
52902;SDS011;38765;53.176;7.090;2022-09-09T15:31:50;0.70;;;0.70;;
52902;SDS011;38765;53.176;7.090;2022-09-09T15:34:16;0.70;;;0.70;;
52902;SDS011;38765;53.176;7.090;2022-09-09T15:36:43;0.70;;;0.70;;
52902;SDS011;38765;53.176;7.090;2022-09-09T15:39:11;0.70;;;0.70;;
52902;SDS011;38765;53.176;7.090;2022-09-09T15:41:44;0.70;;;0.70;;
52902;SDS011;38765;53.176;7.090;2022-09-09T15:44:11;0.70;;;0.70;;
52902;SDS011;38765;53.176;7.090;2022-09-09T15:46:50;0.70;;;0.70;;
52902;SDS011;38765;53.176;7.090;2022-09-09T15:51:54;0.70;;;0.70;;
52902;SDS011;38765;53.176;7.090;2022-09-09T15:54:23;0.70;;;0.70;;
52902;SDS011;38765;53.176;7.090;2022-09-09T15:56:50;0.70;;;0.70;;
52902;SDS011;38765;53.176;7.090;2022-09-09T15:59:19;0.70;;;0.70;;
52902;SDS011;38765;53.176;7.090;2022-09-09T16:01:45;0.70;;;0.65;;
52902;SDS011;38765;53.176;7.090;2022-09-09T16:04:11;0.70;;;0.70;;
52902;SDS011;38765;53.176;7.090;2022-09-09T16:06:40;0.70;;;0.60;;
52902;SDS011;38765;53.176;7.090;2022-09-09T16:09:06;0.70;;;0.70;;
52902;SDS011;38765;53.176;7.090;2022-09-09T16:11:34;0.70;;;0.60;;
52902;SDS011;38765;53.176;7.090;2022-09-09T16:14:01;0.70;;;0.70;;
52902;SDS011;38765;53.176;7.090;2022-09-09T16:16:28;0.70;;;0.70;;
52902;SDS011;38765;53.176;7.090;2022-09-09T16:18:56;0.70;;;0.70;;
52902;SDS011;38765;53.176;7.090;2022-09-09T16:21:30;0.70;;;0.70;;
52902;SDS011;38765;53.176;7.090;2022-09-09T16:23:58;0.70;;;0.70;;
52902;SDS011;38765;53.176;7.090;2022-09-09T16:26:26;0.70;;;0.70;;
52902;SDS011;38765;53.176;7.090;2022-09-09T16:28:52;0.70;;;0.70;;
52902;SDS011;38765;53.176;7.090;2022-09-09T16:31:20;0.70;;;0.70;;
52902;SDS011;38765;53.176;7.090;2022-09-09T16:33:47;0.70;;;0.70;;
52902;SDS011;38765;53.176;7.090;2022-09-09T16:36:25;0.70;;;0.70;;
52902;SDS011;38765;53.176;7.090;2022-09-09T16:38:56;0.70;;;0.60;;
52902;SDS011;38765;53.176;7.090;2022-09-09T16:41:23;0.70;;;0.70;;
52902;SDS011;38765;53.176;7.090;2022-09-09T16:43:53;0.70;;;0.70;;
52902;SDS011;38765;53.176;7.090;2022-09-09T16:46:20;0.70;;;0.70;;
52902;SDS011;38765;53.176;7.090;2022-09-09T16:48:47;0.70;;;0.70;;
52902;SDS011;38765;53.176;7.090;2022-09-09T16:51:15;0.70;;;0.70;;
52902;SDS011;38765;53.176;7.090;2022-09-09T16:53:43;0.70;;;0.60;;
52902;SDS011;38765;53.176;7.090;2022-09-09T16:56:10;0.70;;;0.60;;
52902;SDS011;38765;53.176;7.090;2022-09-09T16:58:38;0.70;;;0.60;;
52902;SDS011;38765;53.176;7.090;2022-09-09T17:01:08;0.70;;;0.60;;
52902;SDS011;38765;53.176;7.090;2022-09-09T17:03:35;0.70;;;0.60;;
52902;SDS011;38765;53.176;7.090;2022-09-09T17:06:02;0.70;;;0.60;;
52902;SDS011;38765;53.176;7.090;2022-09-09T17:08:31;0.70;;;0.60;;
52902;SDS011;38765;53.176;7.090;2022-09-09T17:10:59;0.70;;;0.70;;
52902;SDS011;38765;53.176;7.090;2022-09-09T17:13:29;0.70;;;0.60;;
52902;SDS011;38765;53.176;7.090;2022-09-09T17:15:56;0.70;;;0.68;;
52902;SDS011;38765;53.176;7.090;2022-09-09T17:18:22;0.70;;;0.70;;
52902;SDS011;38765;53.176;7.090;2022-09-09T17:20:53;0.70;;;0.60;;
52902;SDS011;38765;53.176;7.090;2022-09-09T17:23:19;0.70;;;0.65;;
52902;SDS011;38765;53.176;7.090;2022-09-09T17:25:55;0.70;;;0.63;;
52902;SDS011;38765;53.176;7.090;2022-09-09T17:28:28;0.70;;;0.60;;
52902;SDS011;38765;53.176;7.090;2022-09-09T17:30:59;0.68;;;0.60;;
52902;SDS011;38765;53.176;7.090;2022-09-09T17:33:30;0.70;;;0.60;;
52902;SDS011;38765;53.176;7.090;2022-09-09T17:35:57;0.68;;;0.60;;
52902;SDS011;38765;53.176;7.090;2022-09-09T17:38:32;0.70;;;0.60;;
52902;SDS011;38765;53.176;7.090;2022-09-09T17:41:02;0.70;;;0.60;;
52902;SDS011;38765;53.176;7.090;2022-09-09T17:43:34;0.70;;;0.70;;
52902;SDS011;38765;53.176;7.090;2022-09-09T17:46:19;0.70;;;0.60;;
52902;SDS011;38765;53.176;7.090;2022-09-09T17:48:57;0.65;;;0.60;;
52902;SDS011;38765;53.176;7.090;2022-09-09T17:51:26;0.70;;;0.60;;